createdAt,value
2023-02-22T00:01:08.135Z,41.70
2023-02-22T00:03:36.317Z,40.80
2023-02-22T00:06:06.874Z,40.80
2023-02-22T00:08:37.071Z,38.23
2023-02-22T00:11:09.069Z,39.03
2023-02-22T00:13:38.668Z,39.97
2023-02-22T00:16:08.195Z,36.83
2023-02-22T00:18:37.779Z,38.10
2023-02-22T00:21:10.618Z,36.90
2023-02-22T00:23:48.654Z,37.40
2023-02-22T00:26:20.220Z,38.53
2023-02-22T00:28:51.332Z,39.53
2023-02-22T00:31:21.845Z,40.00
2023-02-22T00:33:50.676Z,37.50
2023-02-22T00:36:18.762Z,36.20
2023-02-22T00:38:46.601Z,36.83
2023-02-22T00:41:16.426Z,36.60
2023-02-22T00:43:44.595Z,39.00
2023-02-22T00:46:14.075Z,38.63
2023-02-22T00:48:44.589Z,38.73
2023-02-22T00:51:13.018Z,40.80
2023-02-22T00:53:41.006Z,38.77
2023-02-22T00:56:08.961Z,32.53
2023-02-22T00:58:36.880Z,37.23
2023-02-22T01:01:05.225Z,39.47
2023-02-22T01:03:33.273Z,40.60
2023-02-22T01:06:02.541Z,38.93
2023-02-22T01:08:32.659Z,37.67
2023-02-22T01:11:00.568Z,37.03
2023-02-22T01:13:28.429Z,38.33
2023-02-22T01:15:56.781Z,39.27
2023-02-22T01:18:25.922Z,36.27
2023-02-22T01:20:54.190Z,37.23
2023-02-22T01:23:23.500Z,38.43
2023-02-22T01:25:51.518Z,39.63
2023-02-22T01:28:19.525Z,40.03
2023-02-22T01:30:47.614Z,40.40
2023-02-22T01:33:16.070Z,39.10
2023-02-22T01:35:46.276Z,38.70
2023-02-22T01:38:15.009Z,39.20
2023-02-22T01:40:49.837Z,39.80
2023-02-22T01:43:23.626Z,38.92
2023-02-22T01:45:59.935Z,38.13
2023-02-22T01:48:35.473Z,39.60
2023-02-22T01:51:11.202Z,32.03
2023-02-22T01:53:48.183Z,36.37
2023-02-22T01:56:19.756Z,36.73
2023-02-22T01:58:52.740Z,36.33
2023-02-22T02:01:24.467Z,42.63
2023-02-22T02:03:58.259Z,39.27
2023-02-22T02:06:28.473Z,38.73
2023-02-22T02:09:04.742Z,41.27
2023-02-22T02:11:34.191Z,39.63
2023-02-22T02:14:02.046Z,42.30
2023-02-22T02:16:39.216Z,42.00
2023-02-22T02:19:20.390Z,43.90
2023-02-22T02:22:19.830Z,40.07
2023-02-22T02:25:18.978Z,41.17
2023-02-22T02:28:36.134Z,47.07
2023-02-22T02:31:31.344Z,40.80
2023-02-22T02:34:09.260Z,39.13
2023-02-22T02:36:52.577Z,47.50
2023-02-22T02:39:31.033Z,48.20
2023-02-22T02:42:06.189Z,57.63
2023-02-22T02:44:41.568Z,55.95
2023-02-22T02:47:17.742Z,57.55
2023-02-22T02:49:54.876Z,63.70
2023-02-22T02:52:26.965Z,61.00
2023-02-22T02:54:57.180Z,50.70
2023-02-22T02:57:34.260Z,50.20
2023-02-22T03:00:02.109Z,49.60
2023-02-22T03:02:49.907Z,60.83
2023-02-22T03:05:52.937Z,61.90
2023-02-22T03:08:34.518Z,62.10
2023-02-22T03:11:15.404Z,61.80
2023-02-22T03:13:56.692Z,61.80
2023-02-22T03:16:40.434Z,58.83
2023-02-22T03:19:19.576Z,45.67
2023-02-22T03:22:02.298Z,51.63
2023-02-22T03:24:37.148Z,50.03
2023-02-22T03:27:12.681Z,53.55
2023-02-22T03:29:53.680Z,39.20
2023-02-22T03:32:28.521Z,39.43
2023-02-22T03:35:04.024Z,52.77
2023-02-22T03:37:43.001Z,37.20
2023-02-22T03:40:16.932Z,35.60
2023-02-22T03:42:53.016Z,48.73
2023-02-22T03:45:27.252Z,47.07
2023-02-22T03:48:04.700Z,31.90
2023-02-22T03:50:36.891Z,38.53
2023-02-22T03:53:08.418Z,44.40
2023-02-22T03:55:39.454Z,37.43
2023-02-22T03:58:13.345Z,43.87
2023-02-22T04:00:44.425Z,53.23
2023-02-22T04:03:12.822Z,39.97
2023-02-22T04:05:40.914Z,39.00
2023-02-22T04:08:10.050Z,47.60
2023-02-22T04:10:38.025Z,49.47
2023-02-22T04:13:10.322Z,54.70
2023-02-22T04:15:41.284Z,54.45
2023-02-22T04:18:12.622Z,54.63
2023-02-22T04:20:40.457Z,53.07
2023-02-22T04:23:17.191Z,49.83
2023-02-22T04:25:45.102Z,56.17
2023-02-22T04:28:13.704Z,38.77
2023-02-22T04:31:00.399Z,49.40
2023-02-22T04:33:29.712Z,38.63
2023-02-22T04:35:57.769Z,46.83
2023-02-22T04:38:34.394Z,48.07
2023-02-22T04:41:02.649Z,40.47
2023-02-22T04:43:30.478Z,52.33
2023-02-22T04:46:07.340Z,53.97
2023-02-22T04:48:35.903Z,51.60
2023-02-22T04:51:04.494Z,52.87
2023-02-22T04:53:34.948Z,55.90
2023-02-22T04:56:03.171Z,44.50
2023-02-22T04:58:31.675Z,53.07
2023-02-22T05:01:00.721Z,50.93
2023-02-22T05:03:28.967Z,52.57
2023-02-22T05:05:56.690Z,50.87
2023-02-22T05:08:24.450Z,34.50
2023-02-22T05:10:54.653Z,41.13
2023-02-22T05:13:22.585Z,39.70
2023-02-22T05:15:50.537Z,44.90
2023-02-22T05:18:18.354Z,47.80
2023-02-22T05:20:46.279Z,48.43
2023-02-22T05:23:14.038Z,42.47
2023-02-22T05:25:42.057Z,41.23
2023-02-22T05:28:15.398Z,48.03
2023-02-22T05:30:43.650Z,51.17
2023-02-22T05:33:11.702Z,41.23
2023-02-22T05:35:39.778Z,31.83
2023-02-22T05:38:10.174Z,38.07
2023-02-22T05:40:37.998Z,47.47
2023-02-22T05:43:05.740Z,37.83
2023-02-22T05:45:44.561Z,41.37
2023-02-22T05:48:12.927Z,38.13
2023-02-22T05:50:40.698Z,45.20
2023-02-22T05:53:08.509Z,45.27
2023-02-22T05:55:36.294Z,36.03
2023-02-22T05:58:05.704Z,37.40
2023-02-22T06:00:35.030Z,33.90
2023-02-22T06:03:06.132Z,42.03
2023-02-22T06:05:34.284Z,37.50
2023-02-22T06:08:03.237Z,42.80
2023-02-22T06:10:31.175Z,28.30
2023-02-22T06:13:01.184Z,35.40
2023-02-22T06:15:30.108Z,32.20
2023-02-22T06:18:00.153Z,25.90
2023-02-22T06:20:30.157Z,37.90
2023-02-22T06:22:59.105Z,31.13
2023-02-22T06:25:33.439Z,35.60
2023-02-22T06:28:01.901Z,35.13
2023-02-22T06:30:30.961Z,22.57
2023-02-22T06:33:00.142Z,26.03
2023-02-22T06:35:28.056Z,33.43
2023-02-22T06:37:55.828Z,27.53
2023-02-22T06:40:23.903Z,33.87
2023-02-22T06:42:51.827Z,27.97
2023-02-22T06:45:19.703Z,41.77
2023-02-22T06:47:48.083Z,38.27
2023-02-22T06:50:24.031Z,42.47
2023-02-22T06:52:52.711Z,36.67
2023-02-22T06:55:23.762Z,23.00
2023-02-22T06:57:52.351Z,28.00
2023-02-22T07:00:25.063Z,16.57
2023-02-22T07:02:53.967Z,22.73
2023-02-22T07:05:25.697Z,25.63
2023-02-22T07:08:00.919Z,29.27
2023-02-22T07:10:31.533Z,26.65
2023-02-22T07:13:01.124Z,25.93
2023-02-22T07:15:32.750Z,29.87
2023-02-22T07:18:02.020Z,20.07
2023-02-22T07:20:32.439Z,37.87
2023-02-22T07:23:01.351Z,24.77
2023-02-22T07:25:29.151Z,28.13
2023-02-22T07:27:57.771Z,26.23
2023-02-22T07:30:34.020Z,21.97
2023-02-22T07:33:05.633Z,37.63
2023-02-22T07:35:37.753Z,38.57
2023-02-22T07:38:10.453Z,31.37
2023-02-22T07:40:39.250Z,26.30
2023-02-22T07:43:17.605Z,30.93
2023-02-22T07:45:47.558Z,27.27
2023-02-22T07:48:17.727Z,21.53
2023-02-22T07:50:47.529Z,24.70
2023-02-22T07:53:19.424Z,26.67
2023-02-22T07:55:50.872Z,30.73
2023-02-22T07:58:22.490Z,25.83
2023-02-22T08:00:50.398Z,16.00
2023-02-22T08:03:22.215Z,27.07
2023-02-22T08:05:54.599Z,20.47
2023-02-22T08:08:23.354Z,18.93
2023-02-22T08:10:52.253Z,15.53
2023-02-22T08:13:22.101Z,21.27
2023-02-22T08:15:53.473Z,16.53
2023-02-22T08:18:23.342Z,15.90
2023-02-22T08:20:54.153Z,17.43
2023-02-22T08:23:25.240Z,16.57
2023-02-22T08:25:54.150Z,16.63
2023-02-22T08:28:24.705Z,17.67
2023-02-22T08:30:52.924Z,15.67
2023-02-22T08:33:21.065Z,14.80
2023-02-22T08:35:50.049Z,11.37
2023-02-22T08:38:24.138Z,13.97
2023-02-22T08:40:52.935Z,21.67
2023-02-22T08:43:22.298Z,19.00
2023-02-22T08:45:51.538Z,15.30
2023-02-22T08:48:20.730Z,13.47
2023-02-22T08:50:48.606Z,11.83
2023-02-22T08:53:16.879Z,15.57
2023-02-22T08:55:46.354Z,13.80
2023-02-22T08:58:14.224Z,15.07
2023-02-22T09:00:44.516Z,13.47
2023-02-22T09:03:15.258Z,13.17
2023-02-22T09:05:43.734Z,15.23
2023-02-22T09:08:11.957Z,15.27
2023-02-22T09:10:40.645Z,15.57
2023-02-22T09:13:09.895Z,16.20
2023-02-22T09:15:39.661Z,17.97
2023-02-22T09:18:11.595Z,16.20
2023-02-22T09:20:39.406Z,15.27
2023-02-22T09:23:09.677Z,15.90
2023-02-22T09:25:40.727Z,15.67
2023-02-22T09:28:11.136Z,16.77
2023-02-22T09:30:42.115Z,19.10
2023-02-22T09:33:15.754Z,18.70
2023-02-22T09:35:47.024Z,19.13
2023-02-22T09:38:17.983Z,17.73
2023-02-22T09:40:50.693Z,18.23
2023-02-22T09:43:37.885Z,19.23
2023-02-22T09:46:26.676Z,19.67
2023-02-22T09:49:07.711Z,19.47
2023-02-22T09:51:45.215Z,20.50
2023-02-22T09:54:24.027Z,19.07
2023-02-22T09:56:58.284Z,18.90
2023-02-22T09:59:35.258Z,18.60
2023-02-22T10:02:22.122Z,17.93
2023-02-22T10:05:00.408Z,17.50
2023-02-22T10:07:37.050Z,17.17
2023-02-22T10:10:06.420Z,16.73
2023-02-22T10:12:48.390Z,16.33
2023-02-22T10:15:41.086Z,16.47
2023-02-22T10:18:46.231Z,16.23
2023-02-22T10:21:39.832Z,15.87
2023-02-22T10:24:26.220Z,15.93
2023-02-22T10:26:56.445Z,16.20
2023-02-22T10:29:36.107Z,14.73
2023-02-22T10:32:12.174Z,14.57
2023-02-22T10:34:54.279Z,15.00
2023-02-22T10:37:30.453Z,14.87
2023-02-22T10:40:11.787Z,14.90
2023-02-22T10:42:39.949Z,15.50
2023-02-22T10:45:23.789Z,14.87
2023-02-22T10:47:58.960Z,14.90
2023-02-22T10:50:30.768Z,14.38
2023-02-22T10:52:59.052Z,14.17
2023-02-22T10:55:27.311Z,13.27
2023-02-22T10:58:04.744Z,14.50
2023-02-22T11:00:37.239Z,15.00
2023-02-22T11:03:23.013Z,14.60
2023-02-22T11:05:52.449Z,14.50
2023-02-22T11:08:28.226Z,13.85
2023-02-22T11:11:01.509Z,14.05
2023-02-22T11:13:34.122Z,13.27
2023-02-22T11:16:19.880Z,12.98
2023-02-22T11:18:49.822Z,12.07
2023-02-22T11:21:23.385Z,12.30
2023-02-22T11:24:03.748Z,13.20
2023-02-22T11:26:41.856Z,12.05
2023-02-22T11:29:19.655Z,11.60
2023-02-22T11:31:50.073Z,12.65
2023-02-22T11:34:34.864Z,12.57
2023-02-22T11:37:30.485Z,12.67
2023-02-22T11:40:13.516Z,12.90
2023-02-22T11:42:42.539Z,12.02
2023-02-22T11:45:15.756Z,11.98
2023-02-22T11:47:56.515Z,11.50
2023-02-22T11:50:33.117Z,12.18
2023-02-22T11:53:22.081Z,11.90
2023-02-22T11:56:13.965Z,11.07
2023-02-22T11:58:48.496Z,11.93
2023-02-22T12:01:29.905Z,11.43
2023-02-22T12:05:04.122Z,11.15
2023-02-22T12:07:56.464Z,10.60
2023-02-22T12:10:44.039Z,11.13
2023-02-22T12:13:36.797Z,10.73
2023-02-22T12:16:21.833Z,10.00
2023-02-22T12:19:15.696Z,10.40
2023-02-22T12:21:52.774Z,10.32
2023-02-22T12:24:30.617Z,9.80
2023-02-22T12:27:09.648Z,10.45
2023-02-22T12:29:43.869Z,11.00
2023-02-22T12:32:23.358Z,10.67
2023-02-22T12:34:59.609Z,10.77
2023-02-22T12:37:36.854Z,10.15
2023-02-22T12:40:23.398Z,10.85
2023-02-22T12:43:04.687Z,10.55
2023-02-22T12:45:43.450Z,9.68
2023-02-22T12:48:31.561Z,10.10
2023-02-22T12:51:18.769Z,10.90
2023-02-22T12:54:01.407Z,9.68
2023-02-22T12:56:37.471Z,10.30
2023-02-22T12:59:19.483Z,9.80
2023-02-22T13:01:55.040Z,9.65
2023-02-22T13:04:25.180Z,9.55
2023-02-22T13:07:14.474Z,9.75
2023-02-22T13:10:23.437Z,10.10
2023-02-22T13:13:04.873Z,9.68
2023-02-22T13:15:50.961Z,9.43
2023-02-22T13:18:33.094Z,9.23
2023-02-22T13:21:09.902Z,9.68
2023-02-22T13:23:50.104Z,9.57
2023-02-22T13:26:28.890Z,9.35
2023-02-22T13:29:08.718Z,9.50
2023-02-22T13:31:59.298Z,10.50
2023-02-22T13:35:01.919Z,10.05
2023-02-22T13:38:10.237Z,9.73
2023-02-22T13:41:21.694Z,9.82
2023-02-22T13:44:33.904Z,9.60
2023-02-22T13:47:45.376Z,9.80
2023-02-22T13:50:48.746Z,9.70
2023-02-22T13:53:25.625Z,9.77
2023-02-22T13:55:58.589Z,9.85
2023-02-22T13:58:27.832Z,9.63
2023-02-22T14:00:59.845Z,10.23
2023-02-22T14:03:41.254Z,9.88
2023-02-22T14:06:37.938Z,9.68
2023-02-22T14:09:09.514Z,10.05
2023-02-22T14:11:43.201Z,9.57
2023-02-22T14:14:17.729Z,9.88
2023-02-22T14:17:24.195Z,9.35
2023-02-22T14:20:29.969Z,10.43
2023-02-22T14:23:28.952Z,10.38
2023-02-22T14:26:14.549Z,9.80
2023-02-22T14:28:52.417Z,10.18
2023-02-22T14:31:35.609Z,9.30
2023-02-22T14:34:09.551Z,9.32
2023-02-22T14:36:54.731Z,9.82
2023-02-22T14:39:34.048Z,9.27
2023-02-22T14:42:12.521Z,9.85
2023-02-22T14:44:54.424Z,9.48
2023-02-22T14:47:30.379Z,9.60
2023-02-22T14:50:07.926Z,9.90
2023-02-22T14:52:40.002Z,8.95
2023-02-22T14:55:21.308Z,8.85
2023-02-22T14:58:03.844Z,9.38
2023-02-22T15:00:41.801Z,9.80
2023-02-22T15:03:37.563Z,9.20
2023-02-22T15:06:14.886Z,10.07
2023-02-22T15:08:48.783Z,9.40
2023-02-22T15:11:21.836Z,9.60
2023-02-22T15:13:53.839Z,9.90
2023-02-22T15:16:25.041Z,9.50
2023-02-22T15:18:56.568Z,9.57
2023-02-22T15:21:27.943Z,9.60
2023-02-22T15:24:00.308Z,8.80
2023-02-22T15:26:51.984Z,9.93
2023-02-22T15:29:37.304Z,10.07
2023-02-22T15:32:20.442Z,9.88
2023-02-22T15:34:48.735Z,9.27
2023-02-22T15:37:25.378Z,10.35
2023-02-22T15:40:07.741Z,10.25
2023-02-22T15:42:45.924Z,10.23
2023-02-22T15:45:22.463Z,9.98
2023-02-22T15:47:51.781Z,10.00
2023-02-22T15:50:25.770Z,10.50
2023-02-22T15:52:58.163Z,10.30
2023-02-22T15:55:31.787Z,9.80
2023-02-22T15:58:08.183Z,10.90
2023-02-22T16:00:42.083Z,10.00
2023-02-22T16:03:19.357Z,10.70
2023-02-22T16:05:55.679Z,9.52
2023-02-22T16:08:29.338Z,9.85
2023-02-22T16:11:02.733Z,10.80
2023-02-22T16:13:35.400Z,10.88
2023-02-22T16:16:24.444Z,10.27
2023-02-22T16:19:24.501Z,10.40
2023-02-22T16:21:58.427Z,11.05
2023-02-22T16:24:36.490Z,11.98
2023-02-22T16:27:17.357Z,10.95
2023-02-22T16:30:02.431Z,11.00
2023-02-22T16:32:31.763Z,10.65
2023-02-22T16:35:00.200Z,11.48
2023-02-22T16:37:30.213Z,11.23
2023-02-22T16:39:58.277Z,13.10
2023-02-22T16:42:26.699Z,10.48
2023-02-22T16:44:54.877Z,13.13
2023-02-22T16:47:23.254Z,14.15
2023-02-22T16:49:57.045Z,15.88
2023-02-22T16:52:25.264Z,17.38
2023-02-22T16:54:54.739Z,17.55
2023-02-22T16:57:24.967Z,16.45
2023-02-22T16:59:55.379Z,14.70
2023-02-22T17:02:23.359Z,14.85
2023-02-22T17:04:52.402Z,14.98
2023-02-22T17:07:30.814Z,14.63
2023-02-22T17:10:00.540Z,16.25
2023-02-22T17:12:30.391Z,15.25
2023-02-22T17:14:58.736Z,15.10
2023-02-22T17:17:26.621Z,14.80
2023-02-22T17:19:54.996Z,14.80
2023-02-22T17:22:23.031Z,15.30
2023-02-22T17:24:50.998Z,15.73
2023-02-22T17:27:20.403Z,14.50
2023-02-22T17:29:49.012Z,13.90
2023-02-22T17:32:17.001Z,14.10
2023-02-22T17:34:45.192Z,14.67
2023-02-22T17:37:13.107Z,15.13
2023-02-22T17:39:41.026Z,16.03
2023-02-22T17:42:09.179Z,18.50
2023-02-22T17:44:38.902Z,33.07
2023-02-22T17:47:06.927Z,30.60
2023-02-22T17:49:34.892Z,44.90
2023-02-22T17:52:06.166Z,30.73
2023-02-22T17:54:34.259Z,28.40
2023-02-22T17:57:02.200Z,24.63
2023-02-22T17:59:30.086Z,19.63
2023-02-22T18:01:59.550Z,25.87
2023-02-22T18:04:27.455Z,25.47
2023-02-22T18:06:55.578Z,28.77
2023-02-22T18:09:23.674Z,23.57
2023-02-22T18:11:51.628Z,23.03
2023-02-22T18:14:19.651Z,22.80
2023-02-22T18:16:47.936Z,22.03
2023-02-22T18:19:20.423Z,20.53
2023-02-22T18:21:50.002Z,22.37
2023-02-22T18:24:18.477Z,25.47
2023-02-22T18:26:47.412Z,24.47
2023-02-22T18:29:15.415Z,23.10
2023-02-22T18:31:45.592Z,20.00
2023-02-22T18:34:13.697Z,24.13
2023-02-22T18:36:43.173Z,21.27
2023-02-22T18:39:11.853Z,23.13
2023-02-22T18:41:39.714Z,19.50
2023-02-22T18:44:10.376Z,18.27
2023-02-22T18:46:38.560Z,17.77
2023-02-22T18:49:06.544Z,17.60
2023-02-22T18:51:34.588Z,17.53
2023-02-22T18:54:03.986Z,17.67
2023-02-22T18:56:33.831Z,17.30
2023-02-22T18:59:04.064Z,16.83
2023-02-22T19:01:39.136Z,16.60
2023-02-22T19:04:12.537Z,16.92
2023-02-22T19:06:42.907Z,15.77
2023-02-22T19:09:12.489Z,17.07
2023-02-22T19:11:46.164Z,16.70
2023-02-22T19:14:14.354Z,16.37
2023-02-22T19:16:46.507Z,17.27
2023-02-22T19:19:20.863Z,19.53
2023-02-22T19:21:51.610Z,17.20
2023-02-22T19:24:21.041Z,17.73
2023-02-22T19:26:53.783Z,17.10
2023-02-22T19:29:24.795Z,18.20
2023-02-22T19:31:53.924Z,17.70
2023-02-22T19:34:24.423Z,18.30
2023-02-22T19:36:52.668Z,17.17
2023-02-22T19:39:25.853Z,17.80
2023-02-22T19:41:54.267Z,18.13
2023-02-22T19:44:22.743Z,18.57
2023-02-22T19:46:55.184Z,18.20
2023-02-22T19:51:58.135Z,18.53
2023-02-22T19:54:27.586Z,18.23
2023-02-22T19:56:57.878Z,18.47
2023-02-22T19:59:26.174Z,18.37
2023-02-22T20:01:55.651Z,18.90
2023-02-22T20:04:24.969Z,18.10
2023-02-22T20:06:54.927Z,18.97
2023-02-22T20:09:44.415Z,19.23
2023-02-22T20:12:14.136Z,19.30
2023-02-22T20:14:42.273Z,19.37
2023-02-22T20:17:10.392Z,19.97
2023-02-22T20:19:40.454Z,19.80
2023-02-22T20:22:09.899Z,21.07
2023-02-22T20:24:38.326Z,21.60
2023-02-22T20:27:06.486Z,22.10
2023-02-22T20:29:36.037Z,22.93
2023-02-22T20:32:10.117Z,23.13
2023-02-22T20:34:38.599Z,24.20
2023-02-22T20:37:06.633Z,26.63
2023-02-22T20:39:34.647Z,27.43
2023-02-22T20:42:04.615Z,27.73
2023-02-22T20:44:33.104Z,29.13
2023-02-22T20:47:03.483Z,28.50
2023-02-22T20:49:34.271Z,30.23
2023-02-22T20:52:02.569Z,29.47
2023-02-22T20:54:35.238Z,30.07
2023-02-22T20:57:05.465Z,30.57
2023-02-22T20:59:33.696Z,30.83
2023-02-22T21:02:02.854Z,29.73
2023-02-22T21:04:33.083Z,31.77
2023-02-22T21:07:02.351Z,30.20
2023-02-22T21:09:32.458Z,30.67
2023-02-22T21:12:00.455Z,31.03
2023-02-22T21:14:29.786Z,30.30
2023-02-22T21:16:57.965Z,31.53
2023-02-22T21:19:27.376Z,32.67
2023-02-22T21:22:01.355Z,32.17
2023-02-22T21:24:30.058Z,33.47
2023-02-22T21:26:58.502Z,32.43
2023-02-22T21:29:27.195Z,31.80
2023-02-22T21:31:55.467Z,33.70
2023-02-22T21:34:23.673Z,33.83
2023-02-22T21:36:53.341Z,33.33
2023-02-22T21:39:28.157Z,33.30
2023-02-22T21:42:01.188Z,34.53
2023-02-22T21:44:30.217Z,34.43
2023-02-22T21:46:58.210Z,34.43
2023-02-22T21:49:26.374Z,34.13
2023-02-22T21:51:56.563Z,32.97
2023-02-22T21:54:24.509Z,34.63
2023-02-22T21:56:54.376Z,36.03
2023-02-22T21:59:23.668Z,34.60
2023-02-22T22:01:57.358Z,35.37
2023-02-22T22:04:30.890Z,36.77
2023-02-22T22:07:01.808Z,37.87
2023-02-22T22:09:37.187Z,38.37
2023-02-22T22:12:06.450Z,37.60
2023-02-22T22:14:34.959Z,39.03
2023-02-22T22:17:05.815Z,41.67
2023-02-22T22:19:40.565Z,42.13
2023-02-22T22:22:10.777Z,39.92
2023-02-22T22:24:41.733Z,41.20
2023-02-22T22:27:12.161Z,42.67
2023-02-22T22:29:40.394Z,43.30
2023-02-22T22:32:08.843Z,44.07
2023-02-22T22:34:37.844Z,45.37
2023-02-22T22:37:05.777Z,45.13
2023-02-22T22:39:34.946Z,45.90
2023-02-22T22:42:02.854Z,45.33
2023-02-22T22:44:32.796Z,44.63
2023-02-22T22:47:01.378Z,44.03
2023-02-22T22:49:31.188Z,42.90
2023-02-22T22:51:59.067Z,43.43
2023-02-22T22:54:26.989Z,45.43
2023-02-22T22:56:56.028Z,46.30
2023-02-22T22:59:24.117Z,44.40
2023-02-22T23:01:52.225Z,42.10
2023-02-22T23:04:21.386Z,46.20
2023-02-22T23:06:52.165Z,44.57
2023-02-22T23:09:22.549Z,44.83
2023-02-22T23:11:54.956Z,48.13
2023-02-22T23:14:30.955Z,44.60
2023-02-22T23:17:03.357Z,47.20
2023-02-22T23:19:33.382Z,45.93
2023-02-22T23:22:05.290Z,43.77
2023-02-22T23:24:36.124Z,43.30
2023-02-22T23:27:10.711Z,44.90
2023-02-22T23:29:42.631Z,47.38
2023-02-22T23:32:10.590Z,46.07
2023-02-22T23:34:41.401Z,47.07
2023-02-22T23:37:10.617Z,45.43
2023-02-22T23:39:38.946Z,46.90
2023-02-22T23:42:10.048Z,46.30
2023-02-22T23:44:39.730Z,46.13
2023-02-22T23:47:09.617Z,45.87
2023-02-22T23:49:38.434Z,46.27
2023-02-22T23:52:08.429Z,45.00
2023-02-22T23:54:40.242Z,47.47
2023-02-22T23:57:08.694Z,47.13
2023-02-22T23:59:40.441Z,47.73
